sensor_id;sensor_type;location;lat;lon;timestamp;P1;durP1;ratioP1;P2;durP2;ratioP2
32323;SDS011;25666;44.350;9.222;2024-01-25T00:02:13;20.67;;;6.88;;
32323;SDS011;25666;44.350;9.222;2024-01-25T00:04:39;21.45;;;7.15;;
32323;SDS011;25666;44.350;9.222;2024-01-25T00:07:04;21.90;;;7.97;;
32323;SDS011;25666;44.350;9.222;2024-01-25T00:09:33;14.70;;;6.22;;
32323;SDS011;25666;44.350;9.222;2024-01-25T00:11:58;19.02;;;7.60;;
32323;SDS011;25666;44.350;9.222;2024-01-25T00:14:24;21.42;;;7.47;;
32323;SDS011;25666;44.350;9.222;2024-01-25T00:16:49;17.50;;;6.90;;
32323;SDS011;25666;44.350;9.222;2024-01-25T00:19:17;23.67;;;6.65;;
32323;SDS011;25666;44.350;9.222;2024-01-25T00:21:43;20.15;;;7.43;;
32323;SDS011;25666;44.350;9.222;2024-01-25T00:24:14;32.05;;;8.50;;
32323;SDS011;25666;44.350;9.222;2024-01-25T00:26:40;20.30;;;6.97;;
32323;SDS011;25666;44.350;9.222;2024-01-25T00:29:06;16.73;;;6.88;;
32323;SDS011;25666;44.350;9.222;2024-01-25T00:31:33;15.23;;;6.70;;
32323;SDS011;25666;44.350;9.222;2024-01-25T00:33:59;28.08;;;8.10;;
32323;SDS011;25666;44.350;9.222;2024-01-25T00:36:25;24.77;;;7.47;;
32323;SDS011;25666;44.350;9.222;2024-01-25T00:38:51;25.67;;;7.40;;
32323;SDS011;25666;44.350;9.222;2024-01-25T00:41:17;18.23;;;7.40;;
32323;SDS011;25666;44.350;9.222;2024-01-25T00:43:44;17.20;;;5.80;;
32323;SDS011;25666;44.350;9.222;2024-01-25T00:46:10;13.57;;;6.15;;
32323;SDS011;25666;44.350;9.222;2024-01-25T00:48:37;14.88;;;5.70;;
32323;SDS011;25666;44.350;9.222;2024-01-25T00:51:03;16.42;;;6.25;;
32323;SDS011;25666;44.350;9.222;2024-01-25T00:53:33;16.88;;;7.05;;
32323;SDS011;25666;44.350;9.222;2024-01-25T00:55:58;16.50;;;5.68;;
32323;SDS011;25666;44.350;9.222;2024-01-25T00:58:24;17.00;;;5.72;;
32323;SDS011;25666;44.350;9.222;2024-01-25T01:00:50;29.67;;;6.70;;
32323;SDS011;25666;44.350;9.222;2024-01-25T01:03:17;15.55;;;6.15;;
32323;SDS011;25666;44.350;9.222;2024-01-25T01:05:44;20.60;;;6.72;;
32323;SDS011;25666;44.350;9.222;2024-01-25T01:08:10;18.10;;;6.00;;
32323;SDS011;25666;44.350;9.222;2024-01-25T01:10:36;19.25;;;6.95;;
32323;SDS011;25666;44.350;9.222;2024-01-25T01:13:02;18.73;;;6.45;;
32323;SDS011;25666;44.350;9.222;2024-01-25T01:15:28;16.90;;;5.60;;
32323;SDS011;25666;44.350;9.222;2024-01-25T01:17:53;13.90;;;5.40;;
32323;SDS011;25666;44.350;9.222;2024-01-25T01:20:19;21.23;;;5.60;;
32323;SDS011;25666;44.350;9.222;2024-01-25T01:22:44;19.50;;;7.05;;
32323;SDS011;25666;44.350;9.222;2024-01-25T01:25:10;21.02;;;6.03;;
32323;SDS011;25666;44.350;9.222;2024-01-25T01:27:35;11.30;;;5.28;;
32323;SDS011;25666;44.350;9.222;2024-01-25T01:30:01;14.25;;;5.57;;
32323;SDS011;25666;44.350;9.222;2024-01-25T01:32:27;12.85;;;5.85;;
32323;SDS011;25666;44.350;9.222;2024-01-25T01:34:52;9.55;;;4.40;;
32323;SDS011;25666;44.350;9.222;2024-01-25T01:37:18;19.65;;;7.65;;
32323;SDS011;25666;44.350;9.222;2024-01-25T01:39:43;11.88;;;5.00;;
32323;SDS011;25666;44.350;9.222;2024-01-25T01:42:09;18.80;;;5.57;;
32323;SDS011;25666;44.350;9.222;2024-01-25T01:44:34;15.77;;;5.22;;
32323;SDS011;25666;44.350;9.222;2024-01-25T01:47:00;20.52;;;5.80;;
32323;SDS011;25666;44.350;9.222;2024-01-25T01:49:25;10.68;;;4.97;;
32323;SDS011;25666;44.350;9.222;2024-01-25T01:51:51;14.38;;;5.45;;
32323;SDS011;25666;44.350;9.222;2024-01-25T01:54:17;22.73;;;6.10;;
32323;SDS011;25666;44.350;9.222;2024-01-25T01:56:44;20.42;;;5.20;;
32323;SDS011;25666;44.350;9.222;2024-01-25T01:59:10;19.52;;;4.47;;
32323;SDS011;25666;44.350;9.222;2024-01-25T02:01:37;10.90;;;4.15;;
32323;SDS011;25666;44.350;9.222;2024-01-25T02:04:03;15.40;;;4.78;;
32323;SDS011;25666;44.350;9.222;2024-01-25T02:06:29;14.88;;;5.13;;
32323;SDS011;25666;44.350;9.222;2024-01-25T02:08:55;17.60;;;4.93;;
32323;SDS011;25666;44.350;9.222;2024-01-25T02:11:23;14.35;;;4.50;;
32323;SDS011;25666;44.350;9.222;2024-01-25T02:13:49;14.30;;;4.93;;
32323;SDS011;25666;44.350;9.222;2024-01-25T02:16:15;11.65;;;4.07;;
32323;SDS011;25666;44.350;9.222;2024-01-25T02:18:43;12.95;;;4.18;;
32323;SDS011;25666;44.350;9.222;2024-01-25T02:21:09;15.05;;;4.65;;
32323;SDS011;25666;44.350;9.222;2024-01-25T02:23:35;12.50;;;4.00;;
32323;SDS011;25666;44.350;9.222;2024-01-25T02:26:00;11.13;;;4.70;;
32323;SDS011;25666;44.350;9.222;2024-01-25T02:28:26;15.50;;;4.28;;
32323;SDS011;25666;44.350;9.222;2024-01-25T02:30:51;8.77;;;4.05;;
32323;SDS011;25666;44.350;9.222;2024-01-25T02:33:17;13.73;;;3.70;;
32323;SDS011;25666;44.350;9.222;2024-01-25T02:35:43;13.45;;;3.00;;
32323;SDS011;25666;44.350;9.222;2024-01-25T02:38:08;17.45;;;4.28;;
32323;SDS011;25666;44.350;9.222;2024-01-25T02:40:34;9.88;;;3.67;;
32323;SDS011;25666;44.350;9.222;2024-01-25T02:42:59;13.63;;;3.40;;
32323;SDS011;25666;44.350;9.222;2024-01-25T02:45:25;14.32;;;3.55;;
32323;SDS011;25666;44.350;9.222;2024-01-25T02:47:50;15.10;;;3.60;;
32323;SDS011;25666;44.350;9.222;2024-01-25T02:50:16;12.07;;;4.80;;
32323;SDS011;25666;44.350;9.222;2024-01-25T02:52:42;11.82;;;3.30;;
32323;SDS011;25666;44.350;9.222;2024-01-25T02:55:07;11.23;;;4.50;;
32323;SDS011;25666;44.350;9.222;2024-01-25T02:57:33;15.90;;;4.30;;
32323;SDS011;25666;44.350;9.222;2024-01-25T02:59:58;10.85;;;4.68;;
32323;SDS011;25666;44.350;9.222;2024-01-25T03:02:24;15.32;;;4.22;;
32323;SDS011;25666;44.350;9.222;2024-01-25T03:04:50;19.17;;;3.97;;
32323;SDS011;25666;44.350;9.222;2024-01-25T03:07:15;17.23;;;4.18;;
32323;SDS011;25666;44.350;9.222;2024-01-25T03:09:41;15.20;;;4.00;;
32323;SDS011;25666;44.350;9.222;2024-01-25T03:12:07;11.27;;;3.83;;
32323;SDS011;25666;44.350;9.222;2024-01-25T03:14:32;11.98;;;3.63;;
32323;SDS011;25666;44.350;9.222;2024-01-25T03:16:58;8.63;;;3.60;;
32323;SDS011;25666;44.350;9.222;2024-01-25T03:19:24;11.27;;;4.40;;
32323;SDS011;25666;44.350;9.222;2024-01-25T03:21:51;14.68;;;4.05;;
32323;SDS011;25666;44.350;9.222;2024-01-25T03:24:16;11.75;;;4.45;;
32323;SDS011;25666;44.350;9.222;2024-01-25T03:26:42;18.50;;;4.38;;
32323;SDS011;25666;44.350;9.222;2024-01-25T03:29:07;12.88;;;3.47;;
32323;SDS011;25666;44.350;9.222;2024-01-25T03:31:33;22.38;;;5.90;;
32323;SDS011;25666;44.350;9.222;2024-01-25T03:33:59;8.90;;;3.45;;
32323;SDS011;25666;44.350;9.222;2024-01-25T03:36:25;10.15;;;3.70;;
32323;SDS011;25666;44.350;9.222;2024-01-25T03:38:50;17.35;;;3.83;;
32323;SDS011;25666;44.350;9.222;2024-01-25T03:41:16;11.20;;;4.15;;
32323;SDS011;25666;44.350;9.222;2024-01-25T03:43:41;14.32;;;4.43;;
32323;SDS011;25666;44.350;9.222;2024-01-25T03:46:07;11.43;;;3.53;;
32323;SDS011;25666;44.350;9.222;2024-01-25T03:48:32;8.90;;;3.60;;
32323;SDS011;25666;44.350;9.222;2024-01-25T03:50:58;12.88;;;3.75;;
32323;SDS011;25666;44.350;9.222;2024-01-25T03:53:23;11.30;;;4.40;;
32323;SDS011;25666;44.350;9.222;2024-01-25T03:55:49;10.50;;;4.88;;
32323;SDS011;25666;44.350;9.222;2024-01-25T03:58:17;14.10;;;4.05;;
32323;SDS011;25666;44.350;9.222;2024-01-25T04:00:43;11.23;;;4.55;;
32323;SDS011;25666;44.350;9.222;2024-01-25T04:03:10;11.98;;;3.80;;
32323;SDS011;25666;44.350;9.222;2024-01-25T04:05:36;14.50;;;4.82;;
32323;SDS011;25666;44.350;9.222;2024-01-25T04:08:02;10.45;;;3.65;;
32323;SDS011;25666;44.350;9.222;2024-01-25T04:10:27;13.57;;;3.35;;
32323;SDS011;25666;44.350;9.222;2024-01-25T04:12:53;10.05;;;3.53;;
32323;SDS011;25666;44.350;9.222;2024-01-25T04:15:18;24.05;;;4.03;;
32323;SDS011;25666;44.350;9.222;2024-01-25T04:17:44;10.63;;;3.25;;
32323;SDS011;25666;44.350;9.222;2024-01-25T04:20:10;15.95;;;3.97;;
32323;SDS011;25666;44.350;9.222;2024-01-25T04:22:36;9.00;;;4.15;;
32323;SDS011;25666;44.350;9.222;2024-01-25T04:25:01;14.90;;;3.90;;
32323;SDS011;25666;44.350;9.222;2024-01-25T04:27:27;19.20;;;3.80;;
32323;SDS011;25666;44.350;9.222;2024-01-25T04:29:53;6.55;;;2.90;;
32323;SDS011;25666;44.350;9.222;2024-01-25T04:32:19;8.25;;;3.33;;
32323;SDS011;25666;44.350;9.222;2024-01-25T04:34:45;12.27;;;3.60;;
32323;SDS011;25666;44.350;9.222;2024-01-25T04:37:12;12.90;;;4.25;;
32323;SDS011;25666;44.350;9.222;2024-01-25T04:39:39;14.00;;;5.25;;
32323;SDS011;25666;44.350;9.222;2024-01-25T04:42:04;17.38;;;3.10;;
32323;SDS011;25666;44.350;9.222;2024-01-25T04:44:30;10.35;;;3.22;;
32323;SDS011;25666;44.350;9.222;2024-01-25T04:46:55;9.95;;;3.50;;
32323;SDS011;25666;44.350;9.222;2024-01-25T04:49:21;9.15;;;3.00;;
32323;SDS011;25666;44.350;9.222;2024-01-25T04:51:47;11.48;;;3.72;;
32323;SDS011;25666;44.350;9.222;2024-01-25T04:54:13;8.30;;;3.70;;
32323;SDS011;25666;44.350;9.222;2024-01-25T04:56:41;10.38;;;4.30;;
32323;SDS011;25666;44.350;9.222;2024-01-25T04:59:07;12.40;;;3.65;;
32323;SDS011;25666;44.350;9.222;2024-01-25T05:01:32;13.73;;;3.67;;
32323;SDS011;25666;44.350;9.222;2024-01-25T05:03:58;10.13;;;3.45;;
32323;SDS011;25666;44.350;9.222;2024-01-25T05:06:24;8.32;;;3.33;;
32323;SDS011;25666;44.350;9.222;2024-01-25T05:08:49;7.20;;;3.42;;
32323;SDS011;25666;44.350;9.222;2024-01-25T05:11:15;10.10;;;3.10;;
32323;SDS011;25666;44.350;9.222;2024-01-25T05:13:40;9.98;;;4.00;;
32323;SDS011;25666;44.350;9.222;2024-01-25T05:16:06;21.85;;;3.65;;
32323;SDS011;25666;44.350;9.222;2024-01-25T05:18:31;12.95;;;3.00;;
32323;SDS011;25666;44.350;9.222;2024-01-25T05:20:57;12.43;;;3.45;;
32323;SDS011;25666;44.350;9.222;2024-01-25T05:23:23;11.73;;;3.50;;
32323;SDS011;25666;44.350;9.222;2024-01-25T05:25:48;9.98;;;3.40;;
32323;SDS011;25666;44.350;9.222;2024-01-25T05:28:14;28.85;;;4.38;;
32323;SDS011;25666;44.350;9.222;2024-01-25T05:30:40;6.15;;;3.33;;
32323;SDS011;25666;44.350;9.222;2024-01-25T05:33:05;10.60;;;4.55;;
32323;SDS011;25666;44.350;9.222;2024-01-25T05:35:31;11.25;;;3.70;;
32323;SDS011;25666;44.350;9.222;2024-01-25T05:37:59;8.15;;;3.83;;
32323;SDS011;25666;44.350;9.222;2024-01-25T05:40:25;13.05;;;3.85;;
32323;SDS011;25666;44.350;9.222;2024-01-25T05:42:50;8.43;;;3.80;;
32323;SDS011;25666;44.350;9.222;2024-01-25T05:45:16;14.02;;;4.30;;
32323;SDS011;25666;44.350;9.222;2024-01-25T05:47:44;14.70;;;5.05;;
32323;SDS011;25666;44.350;9.222;2024-01-25T05:50:10;11.00;;;3.63;;
32323;SDS011;25666;44.350;9.222;2024-01-25T05:52:36;8.82;;;4.18;;
32323;SDS011;25666;44.350;9.222;2024-01-25T05:55:03;16.85;;;3.63;;
32323;SDS011;25666;44.350;9.222;2024-01-25T05:57:34;6.22;;;3.85;;
32323;SDS011;25666;44.350;9.222;2024-01-25T06:00:00;12.50;;;4.30;;
32323;SDS011;25666;44.350;9.222;2024-01-25T06:02:26;16.65;;;3.83;;
32323;SDS011;25666;44.350;9.222;2024-01-25T06:04:52;11.20;;;4.05;;
32323;SDS011;25666;44.350;9.222;2024-01-25T06:07:18;17.08;;;4.00;;
32323;SDS011;25666;44.350;9.222;2024-01-25T06:09:43;16.95;;;4.30;;
32323;SDS011;25666;44.350;9.222;2024-01-25T06:12:09;16.25;;;3.75;;
32323;SDS011;25666;44.350;9.222;2024-01-25T06:14:34;12.00;;;4.00;;
32323;SDS011;25666;44.350;9.222;2024-01-25T06:17:00;8.93;;;3.28;;
32323;SDS011;25666;44.350;9.222;2024-01-25T06:19:25;7.28;;;3.60;;
32323;SDS011;25666;44.350;9.222;2024-01-25T06:21:53;10.98;;;3.40;;
32323;SDS011;25666;44.350;9.222;2024-01-25T06:24:18;15.55;;;4.43;;
32323;SDS011;25666;44.350;9.222;2024-01-25T06:26:44;5.10;;;3.33;;
32323;SDS011;25666;44.350;9.222;2024-01-25T06:29:10;6.07;;;3.30;;
32323;SDS011;25666;44.350;9.222;2024-01-25T06:31:42;12.98;;;3.75;;
32323;SDS011;25666;44.350;9.222;2024-01-25T06:34:09;10.18;;;4.45;;
32323;SDS011;25666;44.350;9.222;2024-01-25T06:36:35;8.18;;;3.78;;
32323;SDS011;25666;44.350;9.222;2024-01-25T06:39:00;21.00;;;6.50;;
32323;SDS011;25666;44.350;9.222;2024-01-25T06:41:26;8.82;;;4.22;;
32323;SDS011;25666;44.350;9.222;2024-01-25T06:43:53;7.63;;;4.57;;
32323;SDS011;25666;44.350;9.222;2024-01-25T06:46:19;9.60;;;4.57;;
32323;SDS011;25666;44.350;9.222;2024-01-25T06:48:45;8.95;;;4.13;;
32323;SDS011;25666;44.350;9.222;2024-01-25T06:51:11;23.05;;;5.90;;
32323;SDS011;25666;44.350;9.222;2024-01-25T06:53:36;18.73;;;6.30;;
32323;SDS011;25666;44.350;9.222;2024-01-25T06:56:02;18.75;;;6.03;;
32323;SDS011;25666;44.350;9.222;2024-01-25T06:58:28;15.95;;;5.60;;
32323;SDS011;25666;44.350;9.222;2024-01-25T07:00:55;14.18;;;5.25;;
32323;SDS011;25666;44.350;9.222;2024-01-25T07:03:20;12.80;;;6.30;;
32323;SDS011;25666;44.350;9.222;2024-01-25T07:05:46;13.27;;;4.82;;
32323;SDS011;25666;44.350;9.222;2024-01-25T07:08:11;12.40;;;5.15;;
32323;SDS011;25666;44.350;9.222;2024-01-25T07:10:41;14.45;;;5.95;;
32323;SDS011;25666;44.350;9.222;2024-01-25T07:13:07;14.80;;;5.20;;
32323;SDS011;25666;44.350;9.222;2024-01-25T07:15:33;11.93;;;4.57;;
32323;SDS011;25666;44.350;9.222;2024-01-25T07:17:59;22.73;;;5.55;;
32323;SDS011;25666;44.350;9.222;2024-01-25T07:20:25;14.13;;;5.72;;
32323;SDS011;25666;44.350;9.222;2024-01-25T07:22:50;17.77;;;5.38;;
32323;SDS011;25666;44.350;9.222;2024-01-25T07:25:16;10.85;;;4.85;;
32323;SDS011;25666;44.350;9.222;2024-01-25T07:27:45;16.23;;;4.82;;
32323;SDS011;25666;44.350;9.222;2024-01-25T07:30:12;12.82;;;4.95;;
32323;SDS011;25666;44.350;9.222;2024-01-25T07:32:39;13.15;;;5.53;;
32323;SDS011;25666;44.350;9.222;2024-01-25T07:35:10;15.07;;;5.20;;
32323;SDS011;25666;44.350;9.222;2024-01-25T07:37:36;21.30;;;5.65;;
32323;SDS011;25666;44.350;9.222;2024-01-25T07:40:03;15.77;;;5.10;;
32323;SDS011;25666;44.350;9.222;2024-01-25T07:42:29;21.90;;;5.55;;
32323;SDS011;25666;44.350;9.222;2024-01-25T07:44:55;17.17;;;5.15;;
32323;SDS011;25666;44.350;9.222;2024-01-25T07:47:21;16.52;;;5.47;;
32323;SDS011;25666;44.350;9.222;2024-01-25T07:49:47;14.60;;;5.07;;
32323;SDS011;25666;44.350;9.222;2024-01-25T07:52:13;12.30;;;5.85;;
32323;SDS011;25666;44.350;9.222;2024-01-25T07:54:39;15.57;;;4.75;;
32323;SDS011;25666;44.350;9.222;2024-01-25T07:57:06;14.27;;;5.63;;
32323;SDS011;25666;44.350;9.222;2024-01-25T07:59:31;16.10;;;5.72;;
32323;SDS011;25666;44.350;9.222;2024-01-25T08:01:58;12.27;;;5.30;;
32323;SDS011;25666;44.350;9.222;2024-01-25T08:04:24;23.17;;;5.35;;
32323;SDS011;25666;44.350;9.222;2024-01-25T08:06:51;13.15;;;5.38;;
32323;SDS011;25666;44.350;9.222;2024-01-25T08:09:17;12.02;;;5.50;;
32323;SDS011;25666;44.350;9.222;2024-01-25T08:11:43;16.48;;;5.65;;
32323;SDS011;25666;44.350;9.222;2024-01-25T08:14:12;17.30;;;5.47;;
32323;SDS011;25666;44.350;9.222;2024-01-25T08:16:38;10.20;;;4.28;;
32323;SDS011;25666;44.350;9.222;2024-01-25T08:19:03;8.77;;;4.47;;
32323;SDS011;25666;44.350;9.222;2024-01-25T08:21:29;11.65;;;4.30;;
32323;SDS011;25666;44.350;9.222;2024-01-25T08:23:55;12.40;;;3.83;;
32323;SDS011;25666;44.350;9.222;2024-01-25T08:26:21;16.45;;;4.53;;
32323;SDS011;25666;44.350;9.222;2024-01-25T08:28:47;10.48;;;3.88;;
32323;SDS011;25666;44.350;9.222;2024-01-25T08:31:13;16.65;;;5.03;;
32323;SDS011;25666;44.350;9.222;2024-01-25T08:33:39;14.27;;;4.63;;
32323;SDS011;25666;44.350;9.222;2024-01-25T08:36:10;15.98;;;4.72;;
32323;SDS011;25666;44.350;9.222;2024-01-25T08:38:36;16.90;;;5.47;;
32323;SDS011;25666;44.350;9.222;2024-01-25T08:41:02;15.82;;;5.07;;
32323;SDS011;25666;44.350;9.222;2024-01-25T08:43:27;16.05;;;5.45;;
32323;SDS011;25666;44.350;9.222;2024-01-25T08:45:53;10.05;;;5.43;;
32323;SDS011;25666;44.350;9.222;2024-01-25T08:48:19;16.35;;;5.05;;
32323;SDS011;25666;44.350;9.222;2024-01-25T08:50:45;10.20;;;5.45;;
32323;SDS011;25666;44.350;9.222;2024-01-25T08:53:10;14.65;;;4.50;;
32323;SDS011;25666;44.350;9.222;2024-01-25T08:55:36;12.45;;;4.80;;
32323;SDS011;25666;44.350;9.222;2024-01-25T08:58:01;16.42;;;4.97;;
32323;SDS011;25666;44.350;9.222;2024-01-25T09:00:27;11.13;;;5.00;;
32323;SDS011;25666;44.350;9.222;2024-01-25T09:02:53;14.15;;;4.35;;
32323;SDS011;25666;44.350;9.222;2024-01-25T09:05:18;11.05;;;4.90;;
32323;SDS011;25666;44.350;9.222;2024-01-25T09:07:44;25.10;;;5.78;;
32323;SDS011;25666;44.350;9.222;2024-01-25T09:10:10;12.75;;;5.05;;
32323;SDS011;25666;44.350;9.222;2024-01-25T09:12:36;10.00;;;5.10;;
32323;SDS011;25666;44.350;9.222;2024-01-25T09:15:02;9.07;;;4.18;;
32323;SDS011;25666;44.350;9.222;2024-01-25T09:17:28;15.07;;;5.85;;
32323;SDS011;25666;44.350;9.222;2024-01-25T09:19:53;17.65;;;5.57;;
32323;SDS011;25666;44.350;9.222;2024-01-25T09:22:20;10.85;;;4.32;;
32323;SDS011;25666;44.350;9.222;2024-01-25T09:24:48;19.58;;;5.65;;
32323;SDS011;25666;44.350;9.222;2024-01-25T09:27:14;14.35;;;5.10;;
32323;SDS011;25666;44.350;9.222;2024-01-25T09:29:40;16.02;;;5.85;;
32323;SDS011;25666;44.350;9.222;2024-01-25T09:32:07;18.83;;;5.18;;
32323;SDS011;25666;44.350;9.222;2024-01-25T09:34:38;14.75;;;4.90;;
32323;SDS011;25666;44.350;9.222;2024-01-25T09:37:04;18.75;;;5.45;;
32323;SDS011;25666;44.350;9.222;2024-01-25T09:39:33;23.75;;;5.38;;
32323;SDS011;25666;44.350;9.222;2024-01-25T09:42:00;21.88;;;7.03;;
32323;SDS011;25666;44.350;9.222;2024-01-25T09:44:28;18.08;;;6.07;;
32323;SDS011;25666;44.350;9.222;2024-01-25T09:46:54;21.17;;;5.70;;
32323;SDS011;25666;44.350;9.222;2024-01-25T09:49:20;14.25;;;5.20;;
32323;SDS011;25666;44.350;9.222;2024-01-25T09:51:46;24.08;;;6.63;;
32323;SDS011;25666;44.350;9.222;2024-01-25T09:54:13;23.73;;;6.53;;
32323;SDS011;25666;44.350;9.222;2024-01-25T09:56:41;18.35;;;6.05;;
32323;SDS011;25666;44.350;9.222;2024-01-25T09:59:07;24.20;;;6.72;;
32323;SDS011;25666;44.350;9.222;2024-01-25T10:01:34;18.80;;;6.25;;
32323;SDS011;25666;44.350;9.222;2024-01-25T10:04:00;20.17;;;6.55;;
32323;SDS011;25666;44.350;9.222;2024-01-25T10:06:26;16.48;;;6.40;;
32323;SDS011;25666;44.350;9.222;2024-01-25T10:08:52;13.10;;;5.47;;
32323;SDS011;25666;44.350;9.222;2024-01-25T10:11:18;24.20;;;6.18;;
32323;SDS011;25666;44.350;9.222;2024-01-25T10:13:44;17.55;;;6.28;;
32323;SDS011;25666;44.350;9.222;2024-01-25T10:16:11;17.70;;;5.40;;
32323;SDS011;25666;44.350;9.222;2024-01-25T10:18:38;15.55;;;5.80;;
32323;SDS011;25666;44.350;9.222;2024-01-25T10:21:06;24.33;;;5.30;;
32323;SDS011;25666;44.350;9.222;2024-01-25T10:23:31;13.90;;;4.93;;
32323;SDS011;25666;44.350;9.222;2024-01-25T10:25:57;15.13;;;5.85;;
32323;SDS011;25666;44.350;9.222;2024-01-25T10:28:23;16.02;;;5.60;;
32323;SDS011;25666;44.350;9.222;2024-01-25T10:30:51;19.85;;;5.60;;
32323;SDS011;25666;44.350;9.222;2024-01-25T10:33:16;19.40;;;5.70;;
32323;SDS011;25666;44.350;9.222;2024-01-25T10:35:43;19.27;;;4.93;;
32323;SDS011;25666;44.350;9.222;2024-01-25T10:38:10;17.65;;;4.68;;
32323;SDS011;25666;44.350;9.222;2024-01-25T10:40:37;27.88;;;6.75;;
32323;SDS011;25666;44.350;9.222;2024-01-25T10:43:04;33.10;;;9.40;;
32323;SDS011;25666;44.350;9.222;2024-01-25T10:45:30;24.40;;;8.20;;
32323;SDS011;25666;44.350;9.222;2024-01-25T10:47:56;20.45;;;7.30;;
32323;SDS011;25666;44.350;9.222;2024-01-25T10:50:22;28.75;;;9.00;;
32323;SDS011;25666;44.350;9.222;2024-01-25T10:52:54;25.33;;;8.73;;
32323;SDS011;25666;44.350;9.222;2024-01-25T10:55:21;33.50;;;9.05;;
32323;SDS011;25666;44.350;9.222;2024-01-25T10:57:48;23.45;;;8.93;;
32323;SDS011;25666;44.350;9.222;2024-01-25T11:00:18;34.40;;;8.75;;
32323;SDS011;25666;44.350;9.222;2024-01-25T11:02:44;27.13;;;9.43;;
32323;SDS011;25666;44.350;9.222;2024-01-25T11:05:12;34.92;;;10.30;;
32323;SDS011;25666;44.350;9.222;2024-01-25T11:07:46;32.38;;;9.55;;
32323;SDS011;25666;44.350;9.222;2024-01-25T11:10:24;26.67;;;7.45;;
32323;SDS011;25666;44.350;9.222;2024-01-25T11:15:29;20.17;;;7.95;;
32323;SDS011;25666;44.350;9.222;2024-01-25T11:17:59;19.40;;;7.40;;
32323;SDS011;25666;44.350;9.222;2024-01-25T11:20:26;16.73;;;7.05;;
32323;SDS011;25666;44.350;9.222;2024-01-25T11:25:30;23.48;;;8.80;;
32323;SDS011;25666;44.350;9.222;2024-01-25T11:27:57;18.48;;;6.82;;
32323;SDS011;25666;44.350;9.222;2024-01-25T11:30:23;16.75;;;7.03;;
32323;SDS011;25666;44.350;9.222;2024-01-25T11:32:50;15.38;;;5.40;;
32323;SDS011;25666;44.350;9.222;2024-01-25T11:35:16;19.52;;;7.70;;
32323;SDS011;25666;44.350;9.222;2024-01-25T11:37:42;17.20;;;6.35;;
32323;SDS011;25666;44.350;9.222;2024-01-25T11:40:11;25.77;;;5.38;;
32323;SDS011;25666;44.350;9.222;2024-01-25T11:42:38;13.75;;;5.32;;
32323;SDS011;25666;44.350;9.222;2024-01-25T11:45:08;15.63;;;5.75;;
32323;SDS011;25666;44.350;9.222;2024-01-25T11:47:36;15.13;;;6.20;;
32323;SDS011;25666;44.350;9.222;2024-01-25T11:50:03;15.90;;;5.75;;
32323;SDS011;25666;44.350;9.222;2024-01-25T11:52:29;13.23;;;5.18;;
32323;SDS011;25666;44.350;9.222;2024-01-25T11:54:58;7.80;;;4.05;;
32323;SDS011;25666;44.350;9.222;2024-01-25T11:57:24;10.38;;;4.35;;
32323;SDS011;25666;44.350;9.222;2024-01-25T11:59:50;15.43;;;4.13;;
32323;SDS011;25666;44.350;9.222;2024-01-25T12:02:16;15.50;;;4.28;;
32323;SDS011;25666;44.350;9.222;2024-01-25T12:04:42;12.70;;;4.15;;
32323;SDS011;25666;44.350;9.222;2024-01-25T12:07:08;12.95;;;5.28;;
32323;SDS011;25666;44.350;9.222;2024-01-25T12:09:33;19.75;;;4.88;;
32323;SDS011;25666;44.350;9.222;2024-01-25T12:12:02;15.88;;;4.90;;
32323;SDS011;25666;44.350;9.222;2024-01-25T12:14:29;11.15;;;4.80;;
32323;SDS011;25666;44.350;9.222;2024-01-25T12:16:55;11.60;;;5.32;;
32323;SDS011;25666;44.350;9.222;2024-01-25T12:19:21;25.13;;;5.75;;
32323;SDS011;25666;44.350;9.222;2024-01-25T12:21:47;16.65;;;5.10;;
32323;SDS011;25666;44.350;9.222;2024-01-25T12:24:12;17.45;;;5.40;;
32323;SDS011;25666;44.350;9.222;2024-01-25T12:26:38;10.93;;;4.90;;
32323;SDS011;25666;44.350;9.222;2024-01-25T12:29:04;14.38;;;4.30;;
32323;SDS011;25666;44.350;9.222;2024-01-25T12:31:30;20.63;;;6.53;;
32323;SDS011;25666;44.350;9.222;2024-01-25T12:33:56;13.52;;;5.55;;
32323;SDS011;25666;44.350;9.222;2024-01-25T12:36:23;11.88;;;4.57;;
32323;SDS011;25666;44.350;9.222;2024-01-25T12:38:48;13.27;;;4.20;;
32323;SDS011;25666;44.350;9.222;2024-01-25T12:41:14;14.02;;;4.65;;
32323;SDS011;25666;44.350;9.222;2024-01-25T12:43:40;15.80;;;5.43;;
32323;SDS011;25666;44.350;9.222;2024-01-25T12:46:06;18.40;;;5.88;;
32323;SDS011;25666;44.350;9.222;2024-01-25T12:48:31;20.55;;;4.97;;
32323;SDS011;25666;44.350;9.222;2024-01-25T12:50:57;33.22;;;6.13;;
32323;SDS011;25666;44.350;9.222;2024-01-25T12:53:23;11.45;;;4.63;;
32323;SDS011;25666;44.350;9.222;2024-01-25T12:55:49;24.88;;;6.47;;
32323;SDS011;25666;44.350;9.222;2024-01-25T12:58:15;10.10;;;4.57;;
32323;SDS011;25666;44.350;9.222;2024-01-25T13:00:40;17.83;;;4.97;;
32323;SDS011;25666;44.350;9.222;2024-01-25T13:03:06;16.35;;;5.18;;
32323;SDS011;25666;44.350;9.222;2024-01-25T13:05:31;23.90;;;5.55;;
32323;SDS011;25666;44.350;9.222;2024-01-25T13:08:02;11.00;;;4.40;;
32323;SDS011;25666;44.350;9.222;2024-01-25T13:10:28;17.27;;;4.97;;
32323;SDS011;25666;44.350;9.222;2024-01-25T13:12:53;18.00;;;5.05;;
32323;SDS011;25666;44.350;9.222;2024-01-25T13:15:19;10.80;;;5.30;;
32323;SDS011;25666;44.350;9.222;2024-01-25T13:17:46;14.25;;;4.70;;
32323;SDS011;25666;44.350;9.222;2024-01-25T13:20:13;12.00;;;4.75;;
32323;SDS011;25666;44.350;9.222;2024-01-25T13:22:38;15.60;;;6.45;;
32323;SDS011;25666;44.350;9.222;2024-01-25T13:25:04;18.25;;;5.03;;
32323;SDS011;25666;44.350;9.222;2024-01-25T13:27:30;10.00;;;4.93;;
32323;SDS011;25666;44.350;9.222;2024-01-25T13:29:56;11.63;;;4.53;;
32323;SDS011;25666;44.350;9.222;2024-01-25T13:32:22;15.07;;;4.60;;
32323;SDS011;25666;44.350;9.222;2024-01-25T13:34:51;22.42;;;5.93;;
32323;SDS011;25666;44.350;9.222;2024-01-25T13:37:19;12.82;;;5.25;;
32323;SDS011;25666;44.350;9.222;2024-01-25T13:39:47;12.45;;;5.03;;
32323;SDS011;25666;44.350;9.222;2024-01-25T13:42:12;9.30;;;4.93;;
32323;SDS011;25666;44.350;9.222;2024-01-25T13:44:38;11.35;;;4.45;;
32323;SDS011;25666;44.350;9.222;2024-01-25T13:47:04;19.23;;;5.03;;
32323;SDS011;25666;44.350;9.222;2024-01-25T13:49:31;16.35;;;5.20;;
32323;SDS011;25666;44.350;9.222;2024-01-25T13:51:59;10.35;;;4.53;;
32323;SDS011;25666;44.350;9.222;2024-01-25T13:54:27;13.68;;;4.43;;
32323;SDS011;25666;44.350;9.222;2024-01-25T13:56:52;19.42;;;4.60;;
32323;SDS011;25666;44.350;9.222;2024-01-25T13:59:20;11.60;;;5.82;;
32323;SDS011;25666;44.350;9.222;2024-01-25T14:01:45;16.10;;;5.20;;
32323;SDS011;25666;44.350;9.222;2024-01-25T14:04:12;21.13;;;5.60;;
32323;SDS011;25666;44.350;9.222;2024-01-25T14:06:39;14.07;;;5.95;;
32323;SDS011;25666;44.350;9.222;2024-01-25T14:09:06;11.27;;;5.90;;
32323;SDS011;25666;44.350;9.222;2024-01-25T14:11:31;15.23;;;5.55;;
32323;SDS011;25666;44.350;9.222;2024-01-25T14:13:57;17.00;;;6.32;;
32323;SDS011;25666;44.350;9.222;2024-01-25T14:16:23;10.98;;;5.00;;
32323;SDS011;25666;44.350;9.222;2024-01-25T14:18:48;16.60;;;5.70;;
32323;SDS011;25666;44.350;9.222;2024-01-25T14:21:14;10.23;;;4.88;;
32323;SDS011;25666;44.350;9.222;2024-01-25T14:23:39;14.85;;;5.55;;
32323;SDS011;25666;44.350;9.222;2024-01-25T14:26:05;21.20;;;5.38;;
32323;SDS011;25666;44.350;9.222;2024-01-25T14:28:31;16.25;;;5.93;;
32323;SDS011;25666;44.350;9.222;2024-01-25T14:30:56;13.63;;;5.32;;
32323;SDS011;25666;44.350;9.222;2024-01-25T14:33:22;13.52;;;4.90;;
32323;SDS011;25666;44.350;9.222;2024-01-25T14:35:47;10.65;;;4.95;;